createdAt,value
2023-04-26T00:01:06.482Z,98258.22
2023-04-26T00:03:54.123Z,98263.06
2023-04-26T00:06:42.017Z,98258.28
2023-04-26T00:09:30.934Z,98261.16
2023-04-26T00:12:18.857Z,98260.56
2023-04-26T00:15:07.517Z,98268.84
2023-04-26T00:17:55.194Z,98256.91
2023-04-26T00:20:42.798Z,98265.91
2023-04-26T00:23:30.273Z,98259.34
2023-04-26T00:26:18.999Z,98264.25
2023-04-26T00:29:06.598Z,98262.25
2023-04-26T00:31:54.294Z,98262.50
2023-04-26T00:34:41.949Z,98263.47
2023-04-26T00:37:29.417Z,98263.34
2023-04-26T00:40:17.458Z,98261.81
2023-04-26T00:43:08.105Z,98265.91
2023-04-26T00:45:55.870Z,98261.97
2023-04-26T00:48:43.919Z,98264.13
2023-04-26T00:51:31.575Z,98264.22
2023-04-26T00:54:21.629Z,98266.41
2023-04-26T00:57:10.417Z,98269.66
2023-04-26T00:59:59.537Z,98277.66
2023-04-26T01:02:47.479Z,98275.16
2023-04-26T01:05:36.677Z,98277.91
2023-04-26T01:08:25.603Z,98280.91
2023-04-26T01:11:13.534Z,98277.91
2023-04-26T01:14:01.897Z,98283.41
2023-04-26T01:16:52.230Z,98281.38
2023-04-26T01:19:48.953Z,98283.28
2023-04-26T01:22:37.716Z,98290.56
2023-04-26T01:25:25.218Z,98290.22
2023-04-26T01:28:12.585Z,98287.09
2023-04-26T01:30:59.974Z,98288.41
2023-04-26T01:33:47.380Z,98288.75
2023-04-26T01:36:34.827Z,98284.59
2023-04-26T01:39:23.733Z,98282.91
2023-04-26T01:42:11.765Z,98283.38
2023-04-26T01:44:59.207Z,98284.19
2023-04-26T01:47:46.709Z,98288.25
2023-04-26T01:50:34.239Z,98291.47
2023-04-26T01:53:22.074Z,98295.28
2023-04-26T01:56:11.585Z,98296.38
2023-04-26T01:58:59.318Z,98297.63
2023-04-26T02:01:47.072Z,98303.88
2023-04-26T02:04:34.992Z,98306.72
2023-04-26T02:07:23.643Z,98306.00
2023-04-26T02:10:11.758Z,98303.00
2023-04-26T02:13:00.580Z,98308.69
2023-04-26T02:15:48.425Z,98301.03
2023-04-26T02:18:35.997Z,98300.44
2023-04-26T02:21:24.958Z,98304.97
2023-04-26T02:24:12.460Z,98308.78
2023-04-26T02:27:03.800Z,98301.13
2023-04-26T02:29:52.783Z,98297.28
2023-04-26T02:32:40.995Z,98297.50
2023-04-26T02:35:28.375Z,98303.09
2023-04-26T02:38:16.016Z,98302.22
2023-04-26T02:41:04.971Z,98305.19
2023-04-26T02:43:52.863Z,98302.19
2023-04-26T02:46:41.554Z,98304.31
2023-04-26T02:49:29.662Z,98307.47
2023-04-26T02:52:17.070Z,98305.38
2023-04-26T02:55:05.441Z,98309.41
2023-04-26T02:57:52.923Z,98306.28
2023-04-26T03:00:40.333Z,98308.41
2023-04-26T03:03:29.739Z,98307.75
2023-04-26T03:06:17.524Z,98302.00
2023-04-26T03:09:05.859Z,98310.09
2023-04-26T03:11:54.054Z,98310.53
2023-04-26T03:14:44.444Z,98322.19
2023-04-26T03:17:31.937Z,98315.69
2023-04-26T03:20:21.076Z,98319.56
2023-04-26T03:23:08.512Z,98326.94
2023-04-26T03:25:55.946Z,98329.25
2023-04-26T03:28:43.421Z,98326.09
2023-04-26T03:31:30.783Z,98331.66
2023-04-26T03:34:18.148Z,98332.09
2023-04-26T03:37:06.926Z,98332.38
2023-04-26T03:39:54.720Z,98331.75
2023-04-26T03:42:42.358Z,98333.00
2023-04-26T03:45:30.128Z,98333.41
2023-04-26T03:48:17.768Z,98330.28
2023-04-26T03:51:06.159Z,98334.03
2023-04-26T03:53:54.926Z,98339.69
2023-04-26T03:56:42.204Z,98334.88
2023-04-26T03:59:29.704Z,98335.28
2023-04-26T04:02:17.457Z,98336.50
2023-04-26T04:05:05.833Z,98337.75
2023-04-26T04:07:53.579Z,98340.66
2023-04-26T04:10:42.645Z,98352.19
2023-04-26T04:13:30.013Z,98353.53
2023-04-26T04:16:17.534Z,98354.69
2023-04-26T04:19:05.233Z,98353.19
2023-04-26T04:21:52.843Z,98356.84
2023-04-26T04:24:40.961Z,98351.81
2023-04-26T04:27:30.346Z,98356.50
2023-04-26T04:30:24.523Z,98357.53
2023-04-26T04:33:12.184Z,98359.44
2023-04-26T04:36:00.466Z,98371.75
2023-04-26T04:38:47.935Z,98375.53
2023-04-26T04:41:35.424Z,98370.47
2023-04-26T04:44:26.699Z,98367.97
2023-04-26T04:47:15.331Z,98370.69
2023-04-26T04:50:03.395Z,98369.09
2023-04-26T04:52:51.268Z,98379.66
2023-04-26T04:55:38.671Z,98384.91
2023-04-26T04:58:26.123Z,98381.53
2023-04-26T05:01:15.223Z,98379.84
2023-04-26T05:04:03.683Z,98382.56
2023-04-26T05:06:52.160Z,98385.72
2023-04-26T05:09:39.465Z,98379.25
2023-04-26T05:12:26.896Z,98391.22
2023-04-26T05:15:14.833Z,98389.53
2023-04-26T05:18:03.749Z,98388.03
2023-04-26T05:20:51.205Z,98394.94
2023-04-26T05:23:38.813Z,98402.59
2023-04-26T05:26:26.411Z,98393.22
2023-04-26T05:29:13.852Z,98402.91
2023-04-26T05:32:01.290Z,98396.13
2023-04-26T05:34:50.131Z,98401.28
2023-04-26T05:37:39.374Z,98406.94
2023-04-26T05:40:27.192Z,98410.31
2023-04-26T05:43:15.223Z,98417.78
2023-04-26T05:46:03.078Z,98413.06
2023-04-26T05:48:50.655Z,98420.44
2023-04-26T05:51:39.415Z,98422.56
2023-04-26T05:54:26.964Z,98422.91
2023-04-26T05:57:14.324Z,98425.84
2023-04-26T06:00:01.937Z,98432.25
2023-04-26T06:02:49.915Z,98431.34
2023-04-26T06:05:38.646Z,98430.59
2023-04-26T06:08:28.401Z,98435.00
2023-04-26T06:11:16.257Z,98433.66
2023-04-26T06:14:03.746Z,98436.06
2023-04-26T06:16:51.543Z,98430.19
2023-04-26T06:19:39.153Z,98435.34
2023-04-26T06:22:26.715Z,98439.84
2023-04-26T06:25:15.502Z,98446.13
2023-04-26T06:28:03.781Z,98439.72
2023-04-26T06:30:51.220Z,98430.97
2023-04-26T06:33:38.804Z,98428.94
2023-04-26T06:36:28.158Z,98426.50
2023-04-26T06:39:15.799Z,98423.47
2023-04-26T06:42:04.825Z,98430.16
2023-04-26T06:44:52.360Z,98429.00
2023-04-26T06:47:40.118Z,98428.94
2023-04-26T06:50:27.860Z,98427.28
2023-04-26T06:53:23.438Z,98421.94
2023-04-26T06:56:11.183Z,98435.38
2023-04-26T06:59:05.167Z,98428.97
2023-04-26T07:01:54.237Z,98423.22
2023-04-26T07:04:42.081Z,98426.09
2023-04-26T07:07:29.767Z,98426.56
2023-04-26T07:10:18.025Z,98423.47
2023-04-26T07:13:06.823Z,98423.19
2023-04-26T07:15:57.927Z,98427.47
2023-04-26T07:18:48.253Z,98419.97
2023-04-26T07:21:36.048Z,98411.56
2023-04-26T07:24:23.745Z,98419.50
2023-04-26T07:27:11.284Z,98411.69
2023-04-26T07:29:59.414Z,98411.72
2023-04-26T07:32:48.476Z,98410.84
2023-04-26T07:35:36.381Z,98401.94
2023-04-26T07:38:32.124Z,98412.69
2023-04-26T07:41:19.741Z,98407.25
2023-04-26T07:44:22.357Z,98400.91
2023-04-26T07:47:14.413Z,98409.63
2023-04-26T07:50:03.100Z,98402.63
2023-04-26T07:52:51.321Z,98402.34
2023-04-26T07:55:39.064Z,98390.75
2023-04-26T07:58:26.560Z,98396.38
2023-04-26T08:01:15.708Z,98387.44
2023-04-26T08:04:05.030Z,98379.34
2023-04-26T08:06:53.930Z,98392.19
2023-04-26T08:10:08.221Z,98389.00
2023-04-26T08:12:57.342Z,98391.94
2023-04-26T08:15:44.913Z,98392.56
2023-04-26T08:18:32.415Z,98382.25
2023-04-26T08:21:19.883Z,98382.50
2023-04-26T08:24:09.132Z,98391.66
2023-04-26T08:26:58.509Z,98385.31
2023-04-26T08:29:47.088Z,98380.03
2023-04-26T08:32:35.544Z,98378.09
2023-04-26T08:35:23.314Z,98373.31
2023-04-26T08:38:29.189Z,98376.38
2023-04-26T08:44:29.945Z,98378.00
2023-04-26T08:47:23.878Z,98373.00
2023-04-26T08:50:14.875Z,98369.94
2023-04-26T08:53:03.363Z,98376.53
2023-04-26T08:55:52.537Z,98367.81
2023-04-26T08:58:40.689Z,98372.56
2023-04-26T09:01:31.618Z,98371.59
2023-04-26T09:04:19.475Z,98375.72
2023-04-26T09:07:13.114Z,98373.59
2023-04-26T09:10:02.180Z,98370.97
2023-04-26T09:12:53.834Z,98377.00
2023-04-26T09:15:41.744Z,98373.13
2023-04-26T09:18:33.827Z,98374.03
2023-04-26T09:21:21.871Z,98376.72
2023-04-26T09:24:09.853Z,98372.75
2023-04-26T09:27:04.067Z,98363.88
2023-04-26T09:30:07.882Z,98360.56
2023-04-26T09:32:57.782Z,98357.78
2023-04-26T09:35:46.994Z,98370.25
2023-04-26T09:38:44.284Z,98360.75
2023-04-26T09:41:45.014Z,98361.38
2023-04-26T09:44:33.449Z,98368.41
2023-04-26T09:47:23.993Z,98352.44
2023-04-26T09:50:11.945Z,98352.00
2023-04-26T09:53:01.397Z,98351.53
2023-04-26T09:55:49.691Z,98353.28
2023-04-26T09:58:40.973Z,98350.72
2023-04-26T10:01:30.767Z,98351.66
2023-04-26T10:04:18.986Z,98346.56
2023-04-26T10:07:07.473Z,98341.75
2023-04-26T10:09:59.461Z,98341.59
2023-04-26T10:12:48.410Z,98343.56
2023-04-26T10:15:37.241Z,98346.81
2023-04-26T10:18:25.089Z,98351.28
2023-04-26T10:21:21.183Z,98340.69
2023-04-26T10:24:09.739Z,98345.97
2023-04-26T10:26:59.582Z,98340.50
2023-04-26T10:30:12.116Z,98340.63
2023-04-26T10:33:18.579Z,98340.53
2023-04-26T10:36:13.002Z,98333.25
2023-04-26T10:39:21.964Z,98342.84
2023-04-26T10:42:27.354Z,98336.59
2023-04-26T10:45:29.990Z,98332.88
2023-04-26T10:48:20.439Z,98330.84
2023-04-26T10:51:13.191Z,98332.75
2023-04-26T10:54:02.739Z,98333.63
2023-04-26T10:56:54.021Z,98323.66
2023-04-26T11:00:21.148Z,98328.34
2023-04-26T11:03:13.043Z,98331.25
2023-04-26T11:06:01.769Z,98333.03
2023-04-26T11:08:49.858Z,98333.41
2023-04-26T11:11:54.253Z,98325.44
2023-04-26T11:14:46.170Z,98326.47
2023-04-26T11:17:38.831Z,98327.75
2023-04-26T11:20:32.147Z,98320.03
2023-04-26T11:23:21.291Z,98318.59
2023-04-26T11:26:10.414Z,98309.34
2023-04-26T11:28:58.159Z,98308.94
2023-04-26T11:31:55.211Z,98305.56
2023-04-26T11:34:43.946Z,98299.66
2023-04-26T11:37:31.762Z,98297.03
2023-04-26T11:40:20.461Z,98296.50
2023-04-26T11:43:10.013Z,98293.25
2023-04-26T11:46:01.486Z,98295.53
2023-04-26T11:48:53.718Z,98291.19
2023-04-26T11:51:42.123Z,98287.66
2023-04-26T11:54:31.653Z,98281.19
2023-04-26T11:57:20.763Z,98283.88
2023-04-26T12:00:16.115Z,98287.31
2023-04-26T12:03:11.108Z,98287.25
2023-04-26T12:06:01.201Z,98283.22
2023-04-26T12:08:52.843Z,98281.94
2023-04-26T12:11:41.684Z,98288.25
2023-04-26T12:14:33.631Z,98287.03
2023-04-26T12:17:21.572Z,98283.31
2023-04-26T12:20:13.758Z,98280.38
2023-04-26T12:23:09.401Z,98280.00
2023-04-26T12:26:01.979Z,98271.28
2023-04-26T12:28:50.074Z,98276.19
2023-04-26T12:31:38.116Z,98272.00
2023-04-26T12:34:26.159Z,98274.06
2023-04-26T12:37:14.078Z,98273.72
2023-04-26T12:40:03.307Z,98263.41
2023-04-26T12:42:51.839Z,98271.53
2023-04-26T12:45:39.322Z,98266.38
2023-04-26T12:48:26.925Z,98263.84
2023-04-26T12:51:14.647Z,98262.16
2023-04-26T12:54:02.821Z,98255.28
2023-04-26T12:56:52.198Z,98261.72
2023-04-26T12:59:39.989Z,98253.31
2023-04-26T13:02:27.807Z,98259.94
2023-04-26T13:05:15.990Z,98253.97
2023-04-26T13:08:03.639Z,98254.19
2023-04-26T13:10:51.229Z,98250.78
2023-04-26T13:13:44.284Z,98257.00
2023-04-26T13:16:33.511Z,98254.06
2023-04-26T13:19:21.770Z,98259.06
2023-04-26T13:22:12.764Z,98253.53
2023-04-26T13:25:00.610Z,98254.59
2023-04-26T13:27:48.411Z,98251.66
2023-04-26T13:30:41.051Z,98249.84
2023-04-26T13:33:28.956Z,98252.00
2023-04-26T13:36:16.955Z,98248.81
2023-04-26T13:39:08.039Z,98250.69
2023-04-26T13:41:58.819Z,98245.44
2023-04-26T13:44:46.323Z,98245.09
2023-04-26T13:47:35.342Z,98247.63
2023-04-26T13:50:24.017Z,98250.97
2023-04-26T13:53:12.417Z,98248.06
2023-04-26T13:56:00.124Z,98255.69
2023-04-26T13:58:47.645Z,98252.25
2023-04-26T14:01:37.054Z,98255.88
2023-04-26T14:04:26.350Z,98245.38
2023-04-26T14:07:14.306Z,98246.47
2023-04-26T14:10:02.895Z,98250.09
2023-04-26T14:12:51.156Z,98236.59
2023-04-26T14:15:40.517Z,98230.16
2023-04-26T14:18:32.309Z,98246.38
2023-04-26T14:21:22.699Z,98244.59
2023-04-26T14:24:11.817Z,98237.47
2023-04-26T14:27:03.277Z,98243.31
2023-04-26T14:29:50.813Z,98239.28
2023-04-26T14:32:38.448Z,98232.31
2023-04-26T14:35:26.358Z,98230.03
2023-04-26T14:38:15.894Z,98240.69
2023-04-26T14:41:04.027Z,98241.31
2023-04-26T14:43:52.072Z,98235.31
2023-04-26T14:46:40.046Z,98238.25
2023-04-26T14:49:27.682Z,98233.34
2023-04-26T14:52:15.243Z,98244.91
2023-04-26T14:55:04.421Z,98230.78
2023-04-26T14:57:52.286Z,98232.13
2023-04-26T15:00:40.056Z,98226.44
2023-04-26T15:03:28.228Z,98220.69
2023-04-26T15:06:15.858Z,98229.00
2023-04-26T15:09:04.268Z,98226.22
2023-04-26T15:11:53.373Z,98227.63
2023-04-26T15:14:41.106Z,98232.31
2023-04-26T15:17:29.348Z,98230.38
2023-04-26T15:20:17.484Z,98233.69
2023-04-26T15:23:05.054Z,98238.06
2023-04-26T15:25:52.852Z,98231.38
2023-04-26T15:28:45.439Z,98235.91
2023-04-26T15:31:33.814Z,98235.13
2023-04-26T15:34:23.525Z,98234.06
2023-04-26T15:37:11.289Z,98231.56
2023-04-26T15:39:58.919Z,98225.06
2023-04-26T15:42:46.560Z,98211.66
2023-04-26T15:45:36.825Z,98226.22
2023-04-26T15:48:26.043Z,98226.41
2023-04-26T15:51:13.944Z,98220.63
2023-04-26T15:54:02.077Z,98213.81
2023-04-26T15:56:50.165Z,98217.09
2023-04-26T15:59:37.901Z,98208.00
2023-04-26T16:02:27.958Z,98220.34
2023-04-26T16:05:18.064Z,98224.81
2023-04-26T16:08:07.342Z,98221.88
2023-04-26T16:11:00.901Z,98216.41
2023-04-26T16:13:52.218Z,98214.25
2023-04-26T16:16:42.103Z,98209.66
2023-04-26T16:19:31.644Z,98209.47
2023-04-26T16:22:19.250Z,98208.75
2023-04-26T16:25:08.949Z,98213.03
2023-04-26T16:27:58.888Z,98215.56
2023-04-26T16:30:47.027Z,98208.41
2023-04-26T16:33:34.812Z,98210.53
2023-04-26T16:36:23.805Z,98209.84
2023-04-26T16:39:15.637Z,98202.09
2023-04-26T16:42:05.557Z,98203.88
2023-04-26T16:44:55.802Z,98202.16
2023-04-26T16:47:43.752Z,98200.56
2023-04-26T16:50:31.466Z,98209.59
2023-04-26T16:53:23.021Z,98201.41
2023-04-26T16:56:11.061Z,98202.09
2023-04-26T16:58:58.581Z,98207.16
2023-04-26T17:01:47.394Z,98210.06
2023-04-26T17:04:35.627Z,98216.19
2023-04-26T17:07:23.907Z,98211.31
2023-04-26T17:10:14.713Z,98214.13
2023-04-26T17:13:02.526Z,98225.13
2023-04-26T17:15:50.528Z,98231.97
2023-04-26T17:18:38.888Z,98226.56
2023-04-26T17:21:27.144Z,98221.34
2023-04-26T17:24:15.358Z,98227.56
2023-04-26T17:27:05.331Z,98223.84
2023-04-26T17:29:53.244Z,98226.25
2023-04-26T17:32:41.348Z,98232.19
2023-04-26T17:35:29.425Z,98233.50
2023-04-26T17:38:16.965Z,98232.84
2023-04-26T17:41:05.108Z,98247.41
2023-04-26T17:43:54.449Z,98240.06
2023-04-26T17:46:42.524Z,98246.56
2023-04-26T17:49:30.450Z,98247.06
2023-04-26T17:52:19.994Z,98249.34
2023-04-26T17:55:10.085Z,98248.81
2023-04-26T17:57:58.538Z,98256.47
2023-04-26T18:00:47.902Z,98262.25
2023-04-26T18:03:35.768Z,98255.69
2023-04-26T18:06:24.082Z,98259.56
2023-04-26T18:09:12.232Z,98267.78
2023-04-26T18:12:00.174Z,98271.50
2023-04-26T18:14:48.262Z,98271.88
2023-04-26T18:17:37.742Z,98277.41
2023-04-26T18:20:25.700Z,98273.25
2023-04-26T18:23:13.726Z,98290.63
2023-04-26T18:26:01.433Z,98288.25
2023-04-26T18:28:49.456Z,98288.72
2023-04-26T18:31:37.694Z,98292.03
2023-04-26T18:34:27.055Z,98287.97
2023-04-26T18:37:15.189Z,98295.75
2023-04-26T18:40:04.813Z,98299.03
2023-04-26T18:42:52.911Z,98300.59
2023-04-26T18:45:41.504Z,98303.63
2023-04-26T18:48:32.572Z,98307.50
2023-04-26T18:51:22.546Z,98307.53
2023-04-26T18:54:10.473Z,98310.53
2023-04-26T18:56:59.428Z,98311.53
2023-04-26T18:59:48.418Z,98314.38
2023-04-26T19:02:40.072Z,98318.97
2023-04-26T19:05:31.313Z,98316.28
2023-04-26T19:08:24.017Z,98321.53
2023-04-26T19:11:12.449Z,98323.13
2023-04-26T19:14:09.039Z,98323.59
2023-04-26T19:17:02.608Z,98326.97
2023-04-26T19:19:53.255Z,98329.22
2023-04-26T19:22:44.495Z,98336.97
2023-04-26T19:25:35.181Z,98333.19
2023-04-26T19:28:22.857Z,98344.25
2023-04-26T19:31:11.137Z,98340.47
2023-04-26T19:33:58.730Z,98337.53
2023-04-26T19:36:46.617Z,98336.22
2023-04-26T19:39:34.685Z,98340.25
2023-04-26T19:42:24.721Z,98346.91
2023-04-26T19:45:48.523Z,98331.50
2023-04-26T19:48:38.926Z,98346.91
2023-04-26T19:51:28.452Z,98340.97
2023-04-26T19:54:18.198Z,98341.34
2023-04-26T19:57:06.432Z,98348.66
2023-04-26T19:59:56.033Z,98346.31
2023-04-26T20:02:46.377Z,98349.16
2023-04-26T20:05:37.066Z,98348.50
2023-04-26T20:08:28.382Z,98351.44
2023-04-26T20:11:39.913Z,98352.34
2023-04-26T20:14:30.257Z,98354.84
2023-04-26T20:17:19.641Z,98365.59
2023-04-26T20:20:09.537Z,98361.97
2023-04-26T20:22:57.738Z,98366.56
2023-04-26T20:25:45.630Z,98369.06
2023-04-26T20:28:33.696Z,98370.19
2023-04-26T20:31:21.782Z,98361.25
2023-04-26T20:34:11.793Z,98358.59
2023-04-26T20:37:03.470Z,98363.75
2023-04-26T20:39:51.406Z,98378.78
2023-04-26T20:42:39.393Z,98368.16
2023-04-26T20:45:27.457Z,98372.91
2023-04-26T20:48:15.499Z,98369.38
2023-04-26T20:51:05.345Z,98376.16
2023-04-26T20:53:55.291Z,98375.03
2023-04-26T20:56:43.301Z,98381.84
2023-04-26T20:59:31.437Z,98378.31
2023-04-26T21:02:19.361Z,98387.75
2023-04-26T21:05:07.705Z,98398.13
2023-04-26T21:07:56.846Z,98397.69
2023-04-26T21:10:44.784Z,98392.22
2023-04-26T21:13:32.708Z,98396.09
2023-04-26T21:16:22.659Z,98394.91
2023-04-26T21:19:10.638Z,98391.13
2023-04-26T21:21:58.566Z,98398.63
2023-04-26T21:24:48.111Z,98393.00
2023-04-26T21:27:35.792Z,98390.75
2023-04-26T21:30:23.911Z,98398.25
2023-04-26T21:33:12.471Z,98392.19
2023-04-26T21:36:00.839Z,98394.94
2023-04-26T21:38:48.817Z,98396.75
2023-04-26T21:41:38.308Z,98384.66
2023-04-26T21:44:26.301Z,98390.88
2023-04-26T21:47:14.193Z,98388.47
2023-04-26T21:50:02.336Z,98391.38
2023-04-26T21:52:50.481Z,98388.84
2023-04-26T21:55:38.114Z,98394.13
2023-04-26T21:58:27.544Z,98393.06
2023-04-26T22:01:16.624Z,98403.75
2023-04-26T22:04:06.292Z,98411.06
2023-04-26T22:06:54.371Z,98402.59
2023-04-26T22:09:42.348Z,98401.25
2023-04-26T22:12:30.058Z,98406.78
2023-04-26T22:15:19.873Z,98415.09
2023-04-26T22:18:08.194Z,98423.13
2023-04-26T22:20:56.083Z,98421.44
2023-04-26T22:23:44.137Z,98427.22
2023-04-26T22:26:32.793Z,98424.03
2023-04-26T22:29:20.887Z,98429.41
2023-04-26T22:32:10.719Z,98420.91
2023-04-26T22:34:59.345Z,98424.00
2023-04-26T22:37:47.451Z,98426.88
2023-04-26T22:40:36.243Z,98425.34
2023-04-26T22:43:24.732Z,98430.84
2023-04-26T22:46:12.919Z,98428.59
2023-04-26T22:49:02.069Z,98434.34
2023-04-26T22:52:01.219Z,98432.69
2023-04-26T22:54:53.707Z,98433.75
2023-04-26T22:57:41.781Z,98444.56
2023-04-26T23:00:29.990Z,98444.78
2023-04-26T23:03:18.083Z,98448.13
2023-04-26T23:06:07.916Z,98443.22
2023-04-26T23:08:56.056Z,98445.16
2023-04-26T23:11:44.577Z,98445.50
2023-04-26T23:14:32.447Z,98447.53
2023-04-26T23:17:22.983Z,98446.00
2023-04-26T23:20:16.093Z,98445.25
2023-04-26T23:23:05.391Z,98449.59
2023-04-26T23:25:53.240Z,98449.84
2023-04-26T23:28:41.276Z,98449.22
2023-04-26T23:31:29.461Z,98452.22
2023-04-26T23:34:17.434Z,98454.25
2023-04-26T23:37:07.500Z,98462.41
2023-04-26T23:39:57.728Z,98462.63
2023-04-26T23:42:45.587Z,98469.69
2023-04-26T23:45:33.916Z,98457.59
2023-04-26T23:48:21.925Z,98469.00
2023-04-26T23:51:09.984Z,98469.13
2023-04-26T23:53:58.208Z,98468.16
2023-04-26T23:56:47.696Z,98465.88
2023-04-26T23:59:35.740Z,98461.78
